Time;durP1;ratioP1;P1;durP2;ratioP2;P2;SDS_P1;SDS_P2;PMS_P1;PMS_P2;Temp;Humidity;BMP_temperature;BMP_pressure;BME280_temperature;BME280_humidity;BME280_pressure;Samples;Min_cycle;Max_cycle;Signal;HPM_P1;HPM_P2
2023/06/19 00:00:53;;;;;;;6.28;5.68;;;;;;;21.53;79.35;100684.25;5007150;28;20093;-64
2023/06/19 00:03:18;;;;;;;6.30;5.70;;;;;;;21.53;79.26;100686.91;5008243;28;20052;-62
2023/06/19 00:05:44;;;;;;;6.72;6.05;;;;;;;21.52;79.49;100685.13;5011281;28;20033;-62
2023/06/19 00:08:09;;;;;;;5.78;5.22;;;;;;;21.51;79.50;100688.69;5011123;28;20088;-62
2023/06/19 00:10:34;;;;;;;6.00;5.50;;;;;;;21.51;79.88;100701.84;5010654;28;20025;-63
2023/06/19 00:13:00;;;;;;;6.07;5.53;;;;;;;21.47;80.49;100689.63;5010684;28;20029;-62
2023/06/19 00:15:25;;;;;;;6.90;5.85;;;;;;;21.44;80.82;100701.06;5010578;28;20088;-62
2023/06/19 00:17:50;;;;;;;6.18;5.60;;;;;;;21.41;80.59;100702.88;5010750;28;20057;-62
2023/06/19 00:20:17;;;;;;;6.30;5.72;;;;;;;21.39;80.90;100704.69;5010555;28;20049;-63
2023/06/19 00:22:43;;;;;;;6.20;5.60;;;;;;;21.38;81.04;100708.19;5010190;28;20029;-61
2023/06/19 00:25:08;;;;;;;6.78;6.18;;;;;;;21.33;81.69;100716.19;5010478;28;20033;-62
2023/06/19 00:27:33;;;;;;;5.93;5.43;;;;;;;21.29;81.86;100719.75;5010692;28;20065;-63
2023/06/19 00:30:02;;;;;;;6.75;5.53;;;;;;;21.25;82.17;100721.56;5010711;28;20029;-62
2023/06/19 00:32:30;;;;;;;6.15;5.47;;;;;;;21.21;82.77;100722.47;5010486;28;20112;-62
2023/06/19 00:34:56;;;;;;;6.50;5.80;;;;;;;21.17;83.05;100726.06;5010957;28;20049;-62
2023/06/19 00:37:21;;;;;;;6.60;6.00;;;;;;;21.11;83.49;100729.66;5010049;28;20292;-62
2023/06/19 00:39:46;;;;;;;6.70;5.82;;;;;;;21.05;83.83;100732.38;5010298;28;20385;-62
2023/06/19 00:42:12;;;;;;;6.85;6.10;;;;;;;21.00;84.37;100735.06;5010048;28;20033;-62
2023/06/19 00:44:37;;;;;;;6.30;5.80;;;;;;;20.95;84.71;100742.16;5010222;28;20038;-62
2023/06/19 00:47:04;;;;;;;6.32;5.75;;;;;;;20.90;85.88;100747.47;5009400;28;20520;-62
2023/06/19 00:49:30;;;;;;;6.00;5.50;;;;;;;20.84;85.92;100748.41;5009715;28;20501;-62
2023/06/19 00:51:59;;;;;;;6.95;6.25;;;;;;;20.78;85.87;100751.09;5010007;28;20064;-61
2023/06/19 00:54:24;;;;;;;6.32;5.65;;;;;;;20.76;85.84;100747.63;5010240;28;20072;-63
2023/06/19 00:56:50;;;;;;;6.25;5.65;;;;;;;20.71;86.03;100749.44;5009562;28;20434;-62
2023/06/19 00:59:20;;;;;;;6.85;6.25;;;;;;;20.64;87.04;100749.53;5010354;28;20017;-62
2023/06/19 01:01:46;;;;;;;6.97;6.32;;;;;;;20.60;86.97;100753.06;5009394;28;20105;-62
2023/06/19 01:04:12;;;;;;;6.80;6.13;;;;;;;20.57;87.78;100753.13;5009673;28;20390;-62
2023/06/19 01:07:09;;;;;;;5.70;5.20;;;;;;;20.53;87.56;100761.91;4996732;28;20026;-62
2023/06/19 01:09:44;;;;;;;5.93;5.32;;;;;;;20.47;87.75;100756.75;5002971;28;20041;-62
2023/06/19 01:12:23;;;;;;;6.00;5.50;;;;;;;20.45;88.36;100763.78;5009744;28;20021;-62
2023/06/19 01:15:03;;;;;;;5.25;4.75;;;;;;;20.41;88.71;100752.41;4996401;28;20029;-62
2023/06/19 01:17:28;;;;;;;6.32;5.18;;;;;;;20.39;88.63;100760.31;5009332;28;20058;-61
2023/06/19 01:19:55;;;;;;;6.57;5.13;;;;;;;20.34;89.35;100756.88;5009545;28;20072;-62
2023/06/19 01:22:31;;;;;;;6.60;5.07;;;;;;;20.32;89.77;100760.38;5008593;28;20038;-62
2023/06/19 01:24:57;;;;;;;5.63;5.03;;;;;;;20.26;90.81;100756.94;5009708;28;20101;-63
2023/06/19 01:27:25;;;;;;;5.05;4.57;;;;;;;20.22;91.37;100772.78;5009644;28;20104;-62
2023/06/19 01:29:51;;;;;;;4.78;4.38;;;;;;;20.20;91.64;100764.88;5009390;28;20556;-62
2023/06/19 01:32:34;;;;;;;6.00;4.43;;;;;;;20.19;92.35;100768.41;5008206;28;20108;-62
2023/06/19 01:35:02;;;;;;;4.82;4.30;;;;;;;20.13;93.28;100769.31;5008974;28;20033;-61
2023/06/19 01:37:28;;;;;;;5.18;4.68;;;;;;;20.12;93.63;100775.50;5009084;28;20501;-62
2023/06/19 01:39:59;;;;;;;5.15;4.43;;;;;;;20.09;94.45;100772.88;5008891;28;20127;-62
2023/06/19 01:42:26;;;;;;;4.13;3.80;;;;;;;20.00;95.72;100779.03;4996940;28;20025;-62
2023/06/19 01:44:52;;;;;;;5.53;4.10;;;;;;;19.98;96.45;100779.97;5008693;28;20389;-62
2023/06/19 01:47:19;;;;;;;4.85;4.10;;;;;;;19.95;97.57;100786.09;4991311;28;20172;-62
2023/06/19 01:49:48;;;;;;;4.97;4.45;;;;;;;19.94;97.61;100791.38;5008714;28;20052;-63
2023/06/19 01:52:13;;;;;;;5.35;3.92;;;;;;;19.88;98.86;100793.16;5008953;28;20108;-62
2023/06/19 01:54:39;;;;;;;4.43;3.95;;;;;;;19.83;99.81;100787.06;5008761;28;20025;-62
2023/06/19 01:57:05;;;;;;;4.07;3.30;;;;;;;19.79;99.92;100783.59;5008627;28;20095;-62
2023/06/19 01:59:30;;;;;;;3.97;3.60;;;;;;;19.70;100.00;100786.28;5008629;28;20026;-62
2023/06/19 02:01:55;;;;;;;4.03;3.70;;;;;;;19.70;100.00;100803.84;5008581;28;20058;-62
2023/06/19 02:04:20;;;;;;;4.18;3.80;;;;;;;19.70;100.00;100798.56;5008018;28;20026;-61
2023/06/19 02:06:46;;;;;;;4.00;3.60;;;;;;;19.66;100.00;100797.72;5008622;28;20024;-62
2023/06/19 02:09:11;;;;;;;4.30;3.90;;;;;;;19.65;100.00;100793.34;5008186;28;20033;-62
2023/06/19 02:11:36;;;;;;;3.60;3.30;;;;;;;19.56;100.00;100794.25;5009126;28;20529;-62
2023/06/19 02:14:01;;;;;;;4.15;3.42;;;;;;;19.52;100.00;100808.28;5008246;28;20022;-62
2023/06/19 02:16:27;;;;;;;3.42;3.13;;;;;;;19.51;100.00;100811.81;5008199;28;20036;-62
2023/06/19 02:18:52;;;;;;;3.55;3.03;;;;;;;19.43;100.00;100817.09;5008460;28;20034;-62
2023/06/19 02:21:17;;;;;;;3.38;2.70;;;;;;;19.42;100.00;100808.38;5008032;28;20062;-62
2023/06/19 02:23:42;;;;;;;4.63;2.78;;;;;;;19.40;100.00;100809.25;5008387;28;20036;-61
2023/06/19 02:26:08;;;;;;;3.55;2.63;;;;;;;19.39;100.00;100818.03;5007586;28;20028;-62
2023/06/19 02:28:33;;;;;;;4.68;3.10;;;;;;;19.31;100.00;100823.31;5007903;28;20120;-62
2023/06/19 02:30:58;;;;;;;3.60;3.30;;;;;;;19.27;100.00;100818.94;5008103;28;20018;-62
2023/06/19 02:33:24;;;;;;;2.60;2.40;;;;;;;19.25;100.00;100818.94;5007991;28;20026;-62
2023/06/19 02:35:49;;;;;;;3.78;2.53;;;;;;;19.23;100.00;100812.81;5008144;28;20034;-62
2023/06/19 02:38:14;;;;;;;3.13;2.83;;;;;;;19.18;100.00;100811.97;5007873;28;20036;-62
2023/06/19 02:40:40;;;;;;;3.20;2.78;;;;;;;19.14;100.00;100808.47;5007578;28;20469;-62
2023/06/19 02:43:05;;;;;;;2.90;2.70;;;;;;;19.15;100.00;100805.00;5007675;28;20302;-62
2023/06/19 02:45:30;;;;;;;2.60;2.40;;;;;;;19.12;100.00;100807.66;5008009;28;20284;-62
2023/06/19 02:47:56;;;;;;;3.08;2.78;;;;;;;19.07;100.00;100802.34;5007816;28;20045;-62
2023/06/19 02:50:21;;;;;;;3.00;2.60;;;;;;;19.04;100.00;100804.13;5007300;28;20021;-62
2023/06/19 02:52:47;;;;;;;4.25;2.42;;;;;;;18.99;100.00;100803.28;5007739;28;20025;-62
2023/06/19 02:55:12;;;;;;;2.78;2.47;;;;;;;18.94;100.00;100801.53;5007676;28;20018;-62
2023/06/19 02:57:37;;;;;;;2.92;2.50;;;;;;;18.92;100.00;100811.19;5007738;28;20025;-62
2023/06/19 03:00:05;;;;;;;3.55;2.22;;;;;;;18.90;100.00;100815.56;5007311;28;20068;-62
2023/06/19 03:02:31;;;;;;;2.63;2.42;;;;;;;18.88;100.00;100817.31;5007935;28;20470;-62
2023/06/19 03:04:56;;;;;;;2.70;2.28;;;;;;;18.87;100.00;100818.19;5007677;28;20022;-62
2023/06/19 03:07:21;;;;;;;2.80;2.50;;;;;;;18.83;100.00;100821.72;5007903;28;20026;-62
2023/06/19 03:09:47;;;;;;;2.60;2.40;;;;;;;18.81;100.00;100826.97;5007655;28;20036;-61
2023/06/19 03:12:13;;;;;;;2.83;2.22;;;;;;;18.80;100.00;100824.31;5007215;28;20022;-62
2023/06/19 03:14:39;;;;;;;2.97;2.45;;;;;;;18.77;100.00;100837.47;5005948;28;20032;-62
2023/06/19 03:17:05;;;;;;;4.38;2.47;;;;;;;18.74;100.00;100835.72;5005659;28;20034;-62
2023/06/19 03:19:30;;;;;;;4.93;2.80;;;;;;;18.72;100.00;100834.84;5004915;28;20079;-62
2023/06/19 03:21:56;;;;;;;4.90;2.92;;;;;;;18.68;100.00;100844.47;5006135;28;20109;-62
2023/06/19 03:24:21;;;;;;;4.55;2.83;;;;;;;18.64;100.00;100842.72;5005921;28;20320;-62
2023/06/19 03:26:46;;;;;;;3.53;3.15;;;;;;;18.61;100.00;100840.13;5005238;28;20452;-62
2023/06/19 03:29:12;;;;;;;3.25;2.92;;;;;;;18.62;100.00;100847.09;5005063;28;20032;-62
2023/06/19 03:31:39;;;;;;;3.15;2.85;;;;;;;18.58;100.00;100850.63;5005236;28;20312;-62
2023/06/19 03:34:05;;;;;;;4.80;3.08;;;;;;;18.53;100.00;100842.75;5005404;28;20021;-62
2023/06/19 03:36:30;;;;;;;3.70;2.92;;;;;;;18.46;100.00;100844.50;5007289;28;20029;-62
2023/06/19 03:38:56;;;;;;;4.13;3.28;;;;;;;18.43;100.00;100841.00;5010610;28;20532;-62
2023/06/19 03:41:21;;;;;;;3.75;3.33;;;;;;;18.40;100.00;100841.91;5011445;28;20373;-62
2023/06/19 03:43:46;;;;;;;4.25;3.13;;;;;;;18.41;100.00;100843.63;5011578;28;20075;-62
2023/06/19 03:46:11;;;;;;;3.20;2.90;;;;;;;18.38;100.00;100864.63;5011276;28;20065;-62
2023/06/19 03:48:37;;;;;;;3.80;3.40;;;;;;;18.36;100.00;100855.88;5010989;28;20042;-61
2023/06/19 03:51:02;;;;;;;5.88;3.28;;;;;;;18.33;100.00;100855.88;5011602;28;20026;-63
2023/06/19 03:53:27;;;;;;;3.65;3.30;;;;;;;18.34;100.00;100865.50;5011090;28;20492;-62
2023/06/19 03:55:52;;;;;;;3.20;2.90;;;;;;;18.36;100.00;100862.00;5011740;28;20018;-62
2023/06/19 03:58:18;;;;;;;6.18;3.58;;;;;;;18.38;100.00;100875.13;5010456;28;20101;-62
2023/06/19 04:00:44;;;;;;;5.35;3.35;;;;;;;18.41;100.00;100869.88;5011710;28;20045;-61
2023/06/19 04:03:09;;;;;;;5.70;3.80;;;;;;;18.42;100.00;100876.84;5010825;28;20026;-62
2023/06/19 04:05:34;;;;;;;4.63;3.78;;;;;;;18.47;100.00;100879.50;5011583;28;20113;-62
2023/06/19 04:08:00;;;;;;;4.97;3.75;;;;;;;18.47;100.00;100872.47;5009869;28;20101;-62
2023/06/19 04:10:25;;;;;;;3.75;3.40;;;;;;;18.53;100.00;100881.25;5010950;28;20459;-62
2023/06/19 04:12:50;;;;;;;5.05;3.60;;;;;;;18.52;100.00;100889.97;5010922;28;20312;-63
2023/06/19 04:15:16;;;;;;;4.10;3.70;;;;;;;18.49;100.00;100885.63;5011053;28;20030;-62
2023/06/19 04:17:41;;;;;;;4.15;3.75;;;;;;;18.51;100.00;100889.09;5010325;28;20370;-62
2023/06/19 04:20:11;;;;;;;5.82;3.08;;;;;;;18.55;100.00;100893.47;5010879;28;20501;-61
2023/06/19 04:22:40;;;;;;;4.95;3.42;;;;;;;18.58;100.00;100895.22;5010710;28;20471;-62
2023/06/19 04:25:12;;;;;;;3.63;3.33;;;;;;;18.61;100.00;100903.09;5010777;28;20054;-62
2023/06/19 04:27:38;;;;;;;4.07;3.55;;;;;;;18.64;100.00;100907.44;5010824;28;20026;-61
2023/06/19 04:30:04;;;;;;;7.43;4.60;;;;;;;18.64;100.00;100905.72;5010299;28;20532;-62
2023/06/19 04:32:30;;;;;;;4.32;3.92;;;;;;;18.63;100.00;100914.47;5010405;28;20029;-62
2023/06/19 04:34:55;;;;;;;4.28;3.55;;;;;;;18.65;100.00;100915.34;5010928;28;20025;-62
2023/06/19 04:37:20;;;;;;;6.10;4.53;;;;;;;18.66;100.00;100914.47;5010419;28;20080;-62
2023/06/19 04:39:46;;;;;;;4.50;3.88;;;;;;;18.67;100.00;100921.44;5011045;28;20065;-62
2023/06/19 04:42:19;;;;;;;4.35;3.92;;;;;;;18.66;100.00;100921.44;5009298;28;20029;-62
2023/06/19 04:44:47;;;;;;;4.60;4.18;;;;;;;18.67;100.00;100931.94;4993528;28;20120;-62
2023/06/19 04:47:13;;;;;;;5.28;3.92;;;;;;;18.68;100.00;100925.84;5010204;28;20088;-62
2023/06/19 04:49:38;;;;;;;6.25;5.03;;;;;;;18.69;100.00;100922.31;5009229;28;20034;-62
2023/06/19 04:52:04;;;;;;;5.45;4.20;;;;;;;18.72;100.00;100927.59;5010051;28;20013;-62
2023/06/19 04:54:32;;;;;;;4.93;4.13;;;;;;;18.74;100.00;100929.31;5009916;28;20034;-62
2023/06/19 04:56:57;;;;;;;5.35;4.30;;;;;;;18.75;100.00;100925.81;5010098;28;20024;-62
2023/06/19 04:59:23;;;;;;;4.95;4.22;;;;;;;18.78;100.00;100925.84;5009604;28;20109;-62
2023/06/19 05:01:48;;;;;;;5.53;4.47;;;;;;;18.82;100.00;100927.56;5009292;28;20113;-62
2023/06/19 05:04:13;;;;;;;5.03;4.28;;;;;;;18.85;100.00;100938.06;5009531;28;20034;-62
2023/06/19 05:06:39;;;;;;;5.00;4.10;;;;;;;18.88;100.00;100935.44;5006808;28;20076;-62
2023/06/19 05:09:05;;;;;;;7.10;4.22;;;;;;;18.92;100.00;100938.94;5005687;28;20021;-62
2023/06/19 05:11:30;;;;;;;5.15;4.60;;;;;;;18.93;100.00;100931.06;4990601;28;20474;-62
2023/06/19 05:13:56;;;;;;;5.47;4.10;;;;;;;18.98;100.00;100944.16;5009389;28;20080;-62
2023/06/19 05:16:22;;;;;;;5.13;4.68;;;;;;;19.00;100.00;100937.16;5009315;28;20037;-62
2023/06/19 05:18:48;;;;;;;4.53;4.13;;;;;;;19.04;100.00;100940.66;5009578;28;20033;-62
2023/06/19 05:21:14;;;;;;;5.32;4.82;;;;;;;19.07;100.00;100938.03;5009408;28;20017;-62
2023/06/19 05:23:39;;;;;;;8.93;5.20;;;;;;;19.08;100.00;100947.66;5009660;28;20108;-62
2023/06/19 05:26:04;;;;;;;7.65;5.05;;;;;;;19.08;100.00;100947.66;5008827;28;20018;-62
2023/06/19 05:28:30;;;;;;;5.00;4.50;;;;;;;19.10;100.00;100951.16;5008891;28;20048;-62
2023/06/19 05:30:55;;;;;;;6.13;5.53;;;;;;;19.09;100.00;100952.03;5009391;28;20034;-62
2023/06/19 05:33:23;;;;;;;6.82;5.55;;;;;;;19.11;100.00;100958.16;5008828;28;20529;-62
2023/06/19 05:35:52;;;;;;;5.68;4.88;;;;;;;19.12;100.00;100954.69;5009027;28;20026;-62
2023/06/19 05:38:18;;;;;;;5.90;5.30;;;;;;;19.12;100.00;100946.81;5007989;28;20026;-62
2023/06/19 05:40:43;;;;;;;6.53;4.68;;;;;;;19.16;100.00;100961.69;5008936;28;20042;-62
2023/06/19 05:43:08;;;;;;;7.15;4.88;;;;;;;19.14;100.00;100959.94;5008844;28;20030;-62
2023/06/19 05:45:34;;;;;;;7.40;4.97;;;;;;;19.20;100.00;100965.16;5008517;28;20603;-63
2023/06/19 05:47:59;;;;;;;5.97;5.00;;;;;;;19.25;100.00;100967.81;5002368;28;20046;-60
2023/06/19 05:50:25;;;;;;;6.07;5.45;;;;;;;19.26;100.00;100964.28;5007582;28;20033;-60
2023/06/19 05:52:50;;;;;;;6.07;4.95;;;;;;;19.25;100.00;100967.81;5007127;28;20468;-61
2023/06/19 05:55:15;;;;;;;5.57;4.97;;;;;;;19.27;100.00;100966.03;5008653;28;20022;-61
2023/06/19 05:57:40;;;;;;;5.00;4.50;;;;;;;19.30;100.00;100966.03;5008127;28;20030;-61
2023/06/19 06:00:07;;;;;;;6.95;5.47;;;;;;;19.28;100.00;100968.69;5007846;28;20018;-61
2023/06/19 06:02:32;;;;;;;5.60;5.00;;;;;;;19.33;100.00;100963.41;5000273;28;20033;-61
2023/06/19 06:04:57;;;;;;;7.93;5.97;;;;;;;19.38;100.00;100969.50;5008867;28;20010;-61
2023/06/19 06:07:22;;;;;;;5.88;5.35;;;;;;;19.50;100.00;100968.59;5008158;28;20049;-60
2023/06/19 06:09:48;;;;;;;5.18;4.78;;;;;;;19.66;100.00;100976.44;5008774;28;20022;-61
2023/06/19 06:12:13;;;;;;;5.75;5.25;;;;;;;19.76;100.00;100980.78;4997611;28;20382;-60
2023/06/19 06:14:41;;;;;;;5.57;5.18;;;;;;;19.85;100.00;100985.13;5007865;28;20022;-61
2023/06/19 06:17:06;;;;;;;7.10;5.95;;;;;;;19.91;100.00;100998.22;5007968;28;20088;-61
2023/06/19 06:19:32;;;;;;;9.18;6.15;;;;;;;19.90;100.00;101000.84;5007456;28;20026;-61
2023/06/19 06:21:57;;;;;;;7.90;5.68;;;;;;;19.88;100.00;101000.88;5007572;28;20410;-61
2023/06/19 06:24:22;;;;;;;6.47;5.97;;;;;;;19.86;100.00;101002.63;5008076;28;20021;-62
2023/06/19 06:26:48;;;;;;;6.53;5.93;;;;;;;19.92;100.00;101007.88;5008313;28;20053;-62
2023/06/19 06:29:13;;;;;;;7.40;5.93;;;;;;;20.00;100.00;101014.84;5008499;28;20511;-61
2023/06/19 06:31:39;;;;;;;6.88;6.28;;;;;;;20.06;100.00;101009.59;5008017;28;20030;-62
2023/06/19 06:34:04;;;;;;;7.50;6.90;;;;;;;20.18;100.00;101013.03;5008130;28;20085;-61
2023/06/19 06:36:30;;;;;;;8.20;7.35;;;;;;;20.22;100.00;101010.38;5007874;28;20070;-61
2023/06/19 06:38:55;;;;;;;8.05;7.35;;;;;;;20.24;100.00;101024.41;5007338;28;20017;-61
2023/06/19 06:41:20;;;;;;;7.50;6.90;;;;;;;20.28;100.00;101022.63;5007167;28;20022;-61
2023/06/19 06:43:46;;;;;;;7.45;6.75;;;;;;;20.40;100.00;101029.56;5007306;28;20838;-61
2023/06/19 06:46:11;;;;;;;7.75;7.07;;;;;;;20.54;100.00;101026.88;5007776;28;20032;-61
2023/06/19 06:48:37;;;;;;;7.40;6.80;;;;;;;20.63;100.00;101032.03;5007860;28;20434;-62
2023/06/19 06:51:02;;;;;;;8.02;7.25;;;;;;;20.68;100.00;101033.78;5006755;28;20086;-61
2023/06/19 06:53:28;;;;;;;7.85;7.15;;;;;;;20.74;100.00;101028.47;5007766;28;20616;-61
2023/06/19 06:55:55;;;;;;;6.80;6.25;;;;;;;20.80;100.00;101038.94;5007865;28;20033;-61
2023/06/19 06:58:20;;;;;;;8.00;7.20;;;;;;;20.89;98.51;101038.00;5007822;28;20084;-61
2023/06/19 07:00:45;;;;;;;7.65;6.72;;;;;;;20.95;99.81;101031.84;5007659;28;20022;-62
2023/06/19 07:03:11;;;;;;;8.10;7.20;;;;;;;21.08;100.00;101040.53;5006079;28;20474;-62
2023/06/19 07:05:36;;;;;;;7.03;6.40;;;;;;;21.18;99.13;101044.81;5006314;28;20584;-62
2023/06/19 07:08:03;;;;;;;7.65;6.75;;;;;;;21.26;98.34;101047.38;5005981;28;20033;-62
2023/06/19 07:10:29;;;;;;;7.70;7.00;;;;;;;21.36;98.15;101056.06;5006576;28;20080;-61
2023/06/19 07:12:54;;;;;;;7.00;6.45;;;;;;;21.37;97.10;101059.59;5006263;28;20516;-62
2023/06/19 07:15:19;;;;;;;7.78;7.07;;;;;;;21.41;95.96;101061.28;5006468;28;20022;-61
2023/06/19 07:17:46;;;;;;;7.47;6.88;;;;;;;21.46;95.76;101059.50;5006584;28;20028;-62
2023/06/19 07:20:11;;;;;;;7.57;6.88;;;;;;;21.54;96.00;101072.56;5007485;28;20030;-61
2023/06/19 07:22:37;;;;;;;8.65;7.95;;;;;;;21.59;92.92;101069.00;5007557;28;20036;-62
2023/06/19 07:25:03;;;;;;;7.88;7.18;;;;;;;21.60;92.90;101073.38;5007131;28;20696;-61
2023/06/19 07:27:29;;;;;;;7.75;7.05;;;;;;;21.67;93.04;101078.59;5007929;28;20152;-62
2023/06/19 07:29:54;;;;;;;8.10;7.45;;;;;;;21.79;92.06;101073.19;5008099;28;20042;-61
2023/06/19 07:32:20;;;;;;;7.60;6.75;;;;;;;21.93;91.11;101086.25;5007885;28;20025;-61
2023/06/19 07:34:45;;;;;;;7.43;6.75;;;;;;;22.04;90.68;101088.75;5007199;28;20029;-61
2023/06/19 07:37:17;;;;;;;9.00;7.40;;;;;;;22.13;87.56;101082.50;5007334;28;20022;-61
2023/06/19 07:39:44;;;;;;;7.75;7.05;;;;;;;22.25;87.32;101085.88;5007714;28;20049;-61
2023/06/19 07:42:10;;;;;;;8.55;6.85;;;;;;;22.29;87.02;101087.56;5007392;28;20420;-62
2023/06/19 07:44:35;;;;;;;7.88;7.07;;;;;;;22.25;85.60;101086.72;5007787;28;20113;-62
2023/06/19 07:47:01;;;;;;;7.75;7.05;;;;;;;22.15;86.20;101095.66;5007238;28;20125;-62
2023/06/19 07:49:26;;;;;;;6.40;5.80;;;;;;;22.09;86.74;101090.47;5007069;28;20033;-62
2023/06/19 07:51:51;;;;;;;7.20;6.50;;;;;;;22.07;88.22;101093.97;5007329;28;20471;-62
2023/06/19 07:54:17;;;;;;;7.32;6.72;;;;;;;22.09;88.50;101087.84;5007317;28;20545;-62
2023/06/19 07:56:42;;;;;;;7.32;6.63;;;;;;;22.15;88.63;101083.34;5007219;28;20029;-61
2023/06/19 07:59:07;;;;;;;6.13;5.13;;;;;;;22.30;88.53;101077.00;5006900;28;20029;-61
2023/06/19 08:01:32;;;;;;;6.68;6.00;;;;;;;22.52;87.56;101084.59;5007180;28;20026;-62
2023/06/19 08:03:58;;;;;;;5.85;5.35;;;;;;;22.73;86.71;101081.72;5007317;28;20352;-62
2023/06/19 08:06:23;;;;;;;6.53;6.03;;;;;;;22.89;84.25;101082.34;5007069;28;20029;-61
2023/06/19 08:08:48;;;;;;;6.25;5.50;;;;;;;22.86;82.35;101087.69;5007315;28;20029;-61
2023/06/19 08:11:13;;;;;;;7.22;6.00;;;;;;;22.82;82.43;101092.13;5006894;28;20026;-61
2023/06/19 08:13:39;;;;;;;7.03;6.32;;;;;;;22.68;82.15;101089.72;5006616;28;20034;-62
2023/06/19 08:16:04;;;;;;;6.43;5.88;;;;;;;22.67;82.78;101087.94;5006831;28;20021;-62
2023/06/19 08:18:30;;;;;;;6.50;5.97;;;;;;;22.65;82.68;101089.72;5007241;28;20030;-61
2023/06/19 08:20:55;;;;;;;6.07;5.53;;;;;;;22.82;83.07;101088.63;5006280;28;20406;-62
2023/06/19 08:23:20;;;;;;;5.93;5.35;;;;;;;23.13;82.48;101088.97;5008024;28;20029;-62
2023/06/19 08:25:46;;;;;;;5.40;4.90;;;;;;;23.36;80.52;101100.06;5010729;28;20036;-62
2023/06/19 08:28:11;;;;;;;7.45;6.75;;;;;;;23.42;78.06;101094.72;5009494;28;20017;-62
2023/06/19 08:30:36;;;;;;;6.60;5.93;;;;;;;23.47;78.09;101090.22;5008465;28;20575;-61
2023/06/19 08:33:02;;;;;;;6.05;5.55;;;;;;;23.58;77.76;101090.03;5008516;28;20108;-62
2023/06/19 08:35:27;;;;;;;6.15;5.53;;;;;;;23.74;77.86;101101.19;5007708;28;20048;-62
2023/06/19 08:37:52;;;;;;;6.47;5.95;;;;;;;23.81;76.45;101101.03;5008430;28;20064;-62
2023/06/19 08:40:19;;;;;;;6.10;5.60;;;;;;;23.71;75.49;101106.50;5008295;28;20045;-62
2023/06/19 08:42:44;;;;;;;5.88;5.28;;;;;;;23.66;77.75;101118.94;5008976;28;20075;-62
2023/06/19 08:45:10;;;;;;;6.30;5.80;;;;;;;23.49;76.50;101117.47;5009025;28;20553;-62
2023/06/19 08:47:35;;;;;;;6.55;5.43;;;;;;;23.22;76.71;101122.34;5008391;28;20145;-61
2023/06/19 08:50:00;;;;;;;6.10;5.60;;;;;;;23.24;78.93;101125.81;5008449;28;20053;-61
2023/06/19 08:52:26;;;;;;;6.70;5.20;;;;;;;23.25;77.86;101126.69;5008267;28;20474;-62
2023/06/19 08:54:51;;;;;;;6.65;6.07;;;;;;;23.13;78.09;101128.63;5007885;28;20445;-62
2023/06/19 08:57:17;;;;;;;6.63;5.90;;;;;;;23.22;78.83;101129.38;5007905;28;20026;-62
2023/06/19 08:59:50;;;;;;;6.30;5.80;;;;;;;23.48;79.45;101136.00;5006139;28;20026;-63
2023/06/19 09:02:16;;;;;;;5.93;5.32;;;;;;;23.72;76.82;101140.00;5010358;28;20034;-62
2023/06/19 09:04:41;;;;;;;6.38;5.78;;;;;;;23.78;77.00;101143.44;5010329;28;20217;-62
2023/06/19 09:07:08;;;;;;;6.25;4.95;;;;;;;24.01;75.51;101134.16;5009837;28;20488;-62
2023/06/19 09:09:33;;;;;;;5.85;5.07;;;;;;;24.29;75.04;101142.44;5009454;28;20032;-62
2023/06/19 09:12:03;;;;;;;6.93;6.10;;;;;;;24.30;72.33;101136.25;5009656;28;20021;-62
2023/06/19 09:14:38;;;;;;;6.28;5.40;;;;;;;24.09;71.67;101137.53;5009629;28;20017;-62
2023/06/19 09:17:05;;;;;;;5.80;5.30;;;;;;;24.04;70.22;101149.97;5009906;28;20444;-63
2023/06/19 09:19:31;;;;;;;5.85;5.32;;;;;;;24.10;70.55;101136.63;5008477;28;20038;-62
2023/06/19 09:22:07;;;;;;;6.22;5.57;;;;;;;24.14;69.60;101142.75;5009729;28;20029;-62
2023/06/19 09:24:42;;;;;;;7.80;5.40;;;;;;;24.13;69.67;101147.16;5009514;28;20513;-62
2023/06/19 09:27:17;;;;;;;6.13;5.50;;;;;;;24.44;70.11;101149.22;5009472;28;20052;-61
2023/06/19 09:29:44;;;;;;;6.05;5.55;;;;;;;24.77;69.69;101152.91;5009485;28;20162;-62
2023/06/19 09:32:18;;;;;;;7.60;6.95;;;;;;;24.39;65.82;101151.09;5008817;28;20022;-62
2023/06/19 09:34:44;;;;;;;5.05;4.65;;;;;;;24.70;66.71;101153.03;5008704;28;20465;-62
2023/06/19 09:37:10;;;;;;;7.60;6.70;;;;;;;24.77;64.24;101158.22;5008649;28;20054;-61
2023/06/19 09:39:40;;;;;;;6.63;5.88;;;;;;;24.67;64.68;101169.00;5009167;28;20430;-62
2023/06/19 09:42:09;;;;;;;8.02;6.78;;;;;;;24.49;66.09;101164.97;5008444;28;20393;-62
2023/06/19 09:44:42;;;;;;;6.97;6.30;;;;;;;24.73;65.69;101172.44;5008297;28;20026;-62
2023/06/19 09:47:18;;;;;;;5.53;4.95;;;;;;;24.82;64.92;101172.22;5008740;28;20065;-62
2023/06/19 09:49:49;;;;;;;6.95;5.65;;;;;;;24.97;65.84;101173.66;5008724;28;20084;-62
2023/06/19 09:52:14;;;;;;;8.02;6.72;;;;;;;25.00;62.87;101170.09;5009270;28;20021;-62
2023/06/19 09:54:43;;;;;;;6.15;5.55;;;;;;;25.12;63.42;101171.56;5008891;28;20057;-62
2023/06/19 09:57:10;;;;;;;7.68;6.20;;;;;;;25.10;62.47;101166.28;5008325;28;20476;-62
2023/06/19 09:59:37;;;;;;;8.20;5.90;;;;;;;25.29;62.41;101166.72;5008018;28;20028;-62
2023/06/19 10:02:06;;;;;;;6.70;5.80;;;;;;;25.44;66.16;101166.38;5009467;28;20320;-63
2023/06/19 10:04:43;;;;;;;7.57;6.85;;;;;;;25.38;61.05;101168.25;5008853;28;20030;-61
2023/06/19 10:07:19;;;;;;;6.82;5.68;;;;;;;25.47;60.41;101176.91;5008832;28;20038;-62
2023/06/19 10:10:24;;;;;;;6.38;5.80;;;;;;;25.59;61.53;101179.25;5008153;28;20048;-62
2023/06/19 10:12:52;;;;;;;7.20;5.63;;;;;;;25.70;60.86;101170.16;4968391;28;20042;-62
2023/06/19 10:15:28;;;;;;;6.88;5.65;;;;;;;25.69;59.53;101171.06;5008499;28;20128;-63
2023/06/19 10:18:04;;;;;;;7.03;6.47;;;;;;;25.73;59.01;101178.03;5008550;28;20022;-62
2023/06/19 10:20:38;;;;;;;7.35;6.28;;;;;;;25.80;59.68;101181.41;5008080;28;20049;-62
2023/06/19 10:23:18;;;;;;;8.70;6.78;;;;;;;25.64;60.50;101177.34;5008278;28;20084;-62
2023/06/19 10:25:45;;;;;;;7.07;6.20;;;;;;;25.64;61.59;101171.16;5007311;28;20021;-62
2023/06/19 10:28:19;;;;;;;7.18;6.47;;;;;;;25.72;59.82;101169.22;5008169;28;20040;-62
2023/06/19 10:30:44;;;;;;;6.18;5.68;;;;;;;25.73;59.20;101180.69;5008234;28;20018;-62
2023/06/19 10:33:09;;;;;;;6.50;5.80;;;;;;;25.60;58.60;101183.63;5007540;28;20030;-62
2023/06/19 10:35:39;;;;;;;8.18;5.55;;;;;;;25.61;57.86;101182.72;5005964;28;20438;-62
2023/06/19 10:38:05;;;;;;;5.18;4.63;;;;;;;25.72;57.32;101176.28;5006156;28;20038;-62
2023/06/19 10:40:30;;;;;;;6.18;5.57;;;;;;;25.84;57.73;101186.59;5006400;28;20014;-62
2023/06/19 10:42:55;;;;;;;6.38;5.88;;;;;;;25.93;57.89;101187.22;5006462;28;20382;-62
2023/06/19 10:45:28;;;;;;;6.50;5.85;;;;;;;25.72;54.34;101182.47;5006376;28;20037;-63
2023/06/19 10:47:54;;;;;;;6.20;5.60;;;;;;;25.44;55.67;101182.31;5006619;28;20405;-62
2023/06/19 10:50:19;;;;;;;7.50;6.25;;;;;;;25.40;56.64;101181.50;5007428;28;20051;-62
2023/06/19 10:52:45;;;;;;;6.65;5.75;;;;;;;25.29;56.95;101181.75;5007865;28;20036;-62
2023/06/19 10:55:14;;;;;;;7.13;5.43;;;;;;;25.26;57.58;101180.06;5007797;28;20151;-62
2023/06/19 10:57:44;;;;;;;6.68;6.00;;;;;;;25.25;57.39;101177.44;5008136;28;20025;-62
2023/06/19 11:00:13;;;;;;;6.72;6.10;;;;;;;25.26;58.17;101171.22;5007840;28;20112;-62
2023/06/19 11:02:42;;;;;;;6.35;5.70;;;;;;;25.26;59.25;101177.41;5007880;28;20367;-62
2023/06/19 11:05:08;;;;;;;7.57;6.78;;;;;;;25.18;58.41;101168.78;5007992;28;20025;-62
2023/06/19 11:07:33;;;;;;;6.65;5.97;;;;;;;25.11;60.40;101168.06;5007648;28;20029;-62
2023/06/19 11:09:59;;;;;;;7.15;6.03;;;;;;;25.22;60.29;101164.28;5008165;28;20056;-62
2023/06/19 11:12:24;;;;;;;6.25;5.68;;;;;;;25.14;58.27;101167.97;5007729;28;20057;-62
2023/06/19 11:14:50;;;;;;;6.95;5.63;;;;;;;25.05;58.40;101168.19;5007925;28;20443;-62
2023/06/19 11:17:18;;;;;;;7.43;6.72;;;;;;;25.25;60.25;101158.88;5007794;28;20064;-62
2023/06/19 11:19:44;;;;;;;6.55;5.88;;;;;;;25.38;58.76;101155.00;5007747;28;20026;-62